sensor_id;sensor_type;location;lat;lon;timestamp;P1;durP1;ratioP1;P2;durP2;ratioP2
6809;SDS011;3443;48.812;9.112;2023-07-02T00:02:20;2.38;;;1.70;;
6809;SDS011;3443;48.812;9.112;2023-07-02T00:04:46;1.88;;;1.70;;
6809;SDS011;3443;48.812;9.112;2023-07-02T00:07:13;1.80;;;1.70;;
6809;SDS011;3443;48.812;9.112;2023-07-02T00:09:42;3.08;;;1.98;;
6809;SDS011;3443;48.812;9.112;2023-07-02T00:12:08;1.75;;;1.73;;
6809;SDS011;3443;48.812;9.112;2023-07-02T00:14:34;1.70;;;1.60;;
6809;SDS011;3443;48.812;9.112;2023-07-02T00:17:00;1.88;;;1.65;;
6809;SDS011;3443;48.812;9.112;2023-07-02T00:19:26;2.55;;;2.10;;
6809;SDS011;3443;48.812;9.112;2023-07-02T00:21:52;1.75;;;1.70;;
6809;SDS011;3443;48.812;9.112;2023-07-02T00:24:21;1.40;;;1.40;;
6809;SDS011;3443;48.812;9.112;2023-07-02T00:26:47;1.58;;;1.58;;
6809;SDS011;3443;48.812;9.112;2023-07-02T00:29:13;2.75;;;1.40;;
6809;SDS011;3443;48.812;9.112;2023-07-02T00:31:39;2.35;;;1.75;;
6809;SDS011;3443;48.812;9.112;2023-07-02T00:34:05;2.50;;;1.73;;
6809;SDS011;3443;48.812;9.112;2023-07-02T00:36:31;2.03;;;1.95;;
6809;SDS011;3443;48.812;9.112;2023-07-02T00:38:57;2.10;;;1.70;;
6809;SDS011;3443;48.812;9.112;2023-07-02T00:41:23;1.25;;;1.25;;
6809;SDS011;3443;48.812;9.112;2023-07-02T00:43:50;3.88;;;1.75;;
6809;SDS011;3443;48.812;9.112;2023-07-02T00:46:19;6.78;;;1.70;;
6809;SDS011;3443;48.812;9.112;2023-07-02T00:48:46;1.70;;;1.60;;
6809;SDS011;3443;48.812;9.112;2023-07-02T00:51:16;4.13;;;1.77;;
6809;SDS011;3443;48.812;9.112;2023-07-02T00:53:44;1.70;;;1.60;;
6809;SDS011;3443;48.812;9.112;2023-07-02T00:56:11;1.80;;;1.50;;
6809;SDS011;3443;48.812;9.112;2023-07-02T00:58:40;1.77;;;1.50;;
6809;SDS011;3443;48.812;9.112;2023-07-02T01:01:11;1.92;;;1.73;;
6809;SDS011;3443;48.812;9.112;2023-07-02T01:03:37;1.40;;;1.30;;
6809;SDS011;3443;48.812;9.112;2023-07-02T01:06:06;2.20;;;1.35;;
6809;SDS011;3443;48.812;9.112;2023-07-02T01:08:32;2.40;;;1.30;;
6809;SDS011;3443;48.812;9.112;2023-07-02T01:10:58;2.00;;;1.30;;
6809;SDS011;3443;48.812;9.112;2023-07-02T01:13:24;1.50;;;1.40;;
6809;SDS011;3443;48.812;9.112;2023-07-02T01:15:51;2.05;;;1.58;;
6809;SDS011;3443;48.812;9.112;2023-07-02T01:18:17;1.45;;;1.30;;
6809;SDS011;3443;48.812;9.112;2023-07-02T01:20:43;1.65;;;1.52;;
6809;SDS011;3443;48.812;9.112;2023-07-02T01:23:09;4.47;;;1.42;;
6809;SDS011;3443;48.812;9.112;2023-07-02T01:25:36;1.35;;;1.35;;
6809;SDS011;3443;48.812;9.112;2023-07-02T01:28:02;1.50;;;1.40;;
6809;SDS011;3443;48.812;9.112;2023-07-02T01:30:28;2.75;;;1.40;;
6809;SDS011;3443;48.812;9.112;2023-07-02T01:32:54;1.35;;;1.23;;
6809;SDS011;3443;48.812;9.112;2023-07-02T01:35:21;1.42;;;1.42;;
6809;SDS011;3443;48.812;9.112;2023-07-02T01:37:47;1.48;;;1.38;;
6809;SDS011;3443;48.812;9.112;2023-07-02T01:40:13;1.17;;;1.13;;
6809;SDS011;3443;48.812;9.112;2023-07-02T01:42:39;1.30;;;1.20;;
6809;SDS011;3443;48.812;9.112;2023-07-02T01:45:05;1.40;;;1.25;;
6809;SDS011;3443;48.812;9.112;2023-07-02T01:47:31;1.58;;;1.58;;
6809;SDS011;3443;48.812;9.112;2023-07-02T01:49:57;1.33;;;1.23;;
6809;SDS011;3443;48.812;9.112;2023-07-02T01:52:23;3.65;;;1.35;;
6809;SDS011;3443;48.812;9.112;2023-07-02T01:54:49;1.48;;;1.30;;
6809;SDS011;3443;48.812;9.112;2023-07-02T01:57:17;1.90;;;1.23;;
6809;SDS011;3443;48.812;9.112;2023-07-02T01:59:43;1.15;;;1.15;;
6809;SDS011;3443;48.812;9.112;2023-07-02T02:02:09;2.05;;;1.23;;
6809;SDS011;3443;48.812;9.112;2023-07-02T02:04:35;1.38;;;1.27;;
6809;SDS011;3443;48.812;9.112;2023-07-02T02:07:01;1.40;;;1.40;;
6809;SDS011;3443;48.812;9.112;2023-07-02T02:09:27;1.27;;;1.27;;
6809;SDS011;3443;48.812;9.112;2023-07-02T02:11:55;1.35;;;0.90;;
6809;SDS011;3443;48.812;9.112;2023-07-02T02:14:21;1.42;;;1.20;;
6809;SDS011;3443;48.812;9.112;2023-07-02T02:16:47;1.35;;;1.35;;
6809;SDS011;3443;48.812;9.112;2023-07-02T02:19:13;1.38;;;1.10;;
6809;SDS011;3443;48.812;9.112;2023-07-02T02:21:42;1.30;;;1.20;;
6809;SDS011;3443;48.812;9.112;2023-07-02T02:24:09;2.35;;;1.52;;
6809;SDS011;3443;48.812;9.112;2023-07-02T02:26:35;1.08;;;1.08;;
6809;SDS011;3443;48.812;9.112;2023-07-02T02:29:01;1.20;;;1.10;;
6809;SDS011;3443;48.812;9.112;2023-07-02T02:31:27;0.95;;;0.95;;
6809;SDS011;3443;48.812;9.112;2023-07-02T02:33:53;1.30;;;1.20;;
6809;SDS011;3443;48.812;9.112;2023-07-02T02:36:19;1.27;;;1.23;;
6809;SDS011;3443;48.812;9.112;2023-07-02T02:38:45;1.30;;;1.30;;
6809;SDS011;3443;48.812;9.112;2023-07-02T02:41:11;1.65;;;1.30;;
6809;SDS011;3443;48.812;9.112;2023-07-02T02:43:40;1.30;;;1.20;;
6809;SDS011;3443;48.812;9.112;2023-07-02T02:46:07;2.10;;;1.30;;
6809;SDS011;3443;48.812;9.112;2023-07-02T02:48:33;2.72;;;1.13;;
6809;SDS011;3443;48.812;9.112;2023-07-02T02:50:59;1.50;;;1.48;;
6809;SDS011;3443;48.812;9.112;2023-07-02T02:53:25;3.83;;;1.13;;
6809;SDS011;3443;48.812;9.112;2023-07-02T02:55:51;1.40;;;1.33;;
6809;SDS011;3443;48.812;9.112;2023-07-02T02:58:17;1.38;;;1.27;;
6809;SDS011;3443;48.812;9.112;2023-07-02T03:00:43;6.28;;;1.45;;
6809;SDS011;3443;48.812;9.112;2023-07-02T03:03:11;1.67;;;1.40;;
6809;SDS011;3443;48.812;9.112;2023-07-02T03:05:37;2.50;;;1.52;;
6809;SDS011;3443;48.812;9.112;2023-07-02T03:08:03;1.35;;;1.30;;
6809;SDS011;3443;48.812;9.112;2023-07-02T03:10:29;2.35;;;1.35;;
6809;SDS011;3443;48.812;9.112;2023-07-02T03:12:55;3.22;;;1.52;;
6809;SDS011;3443;48.812;9.112;2023-07-02T03:15:21;1.85;;;1.45;;
6809;SDS011;3443;48.812;9.112;2023-07-02T03:17:47;1.80;;;1.60;;
6809;SDS011;3443;48.812;9.112;2023-07-02T03:20:13;1.85;;;1.75;;
6809;SDS011;3443;48.812;9.112;2023-07-02T03:22:39;2.20;;;1.90;;
6809;SDS011;3443;48.812;9.112;2023-07-02T03:25:05;1.95;;;1.50;;
6809;SDS011;3443;48.812;9.112;2023-07-02T03:27:31;2.33;;;1.67;;
6809;SDS011;3443;48.812;9.112;2023-07-02T03:29:57;3.35;;;2.08;;
6809;SDS011;3443;48.812;9.112;2023-07-02T03:32:23;3.15;;;1.77;;
6809;SDS011;3443;48.812;9.112;2023-07-02T03:34:49;2.20;;;2.03;;
6809;SDS011;3443;48.812;9.112;2023-07-02T03:37:15;1.95;;;1.80;;
6809;SDS011;3443;48.812;9.112;2023-07-02T03:39:41;3.83;;;1.90;;
6809;SDS011;3443;48.812;9.112;2023-07-02T03:42:07;2.15;;;1.98;;
6809;SDS011;3443;48.812;9.112;2023-07-02T03:44:33;2.58;;;2.08;;
6809;SDS011;3443;48.812;9.112;2023-07-02T03:46:59;2.40;;;1.88;;
6809;SDS011;3443;48.812;9.112;2023-07-02T03:49:25;2.50;;;1.83;;
6809;SDS011;3443;48.812;9.112;2023-07-02T03:51:51;2.53;;;1.95;;
6809;SDS011;3443;48.812;9.112;2023-07-02T03:54:17;3.90;;;2.40;;
6809;SDS011;3443;48.812;9.112;2023-07-02T03:56:43;2.28;;;2.10;;
6809;SDS011;3443;48.812;9.112;2023-07-02T03:59:09;2.65;;;2.10;;
6809;SDS011;3443;48.812;9.112;2023-07-02T04:01:35;2.17;;;1.92;;
6809;SDS011;3443;48.812;9.112;2023-07-02T04:04:01;2.38;;;2.17;;
6809;SDS011;3443;48.812;9.112;2023-07-02T04:06:27;2.33;;;2.22;;
6809;SDS011;3443;48.812;9.112;2023-07-02T04:08:53;4.35;;;1.92;;
6809;SDS011;3443;48.812;9.112;2023-07-02T04:11:19;5.45;;;2.05;;
6809;SDS011;3443;48.812;9.112;2023-07-02T04:13:45;4.22;;;2.53;;
6809;SDS011;3443;48.812;9.112;2023-07-02T04:16:11;5.60;;;2.20;;
6809;SDS011;3443;48.812;9.112;2023-07-02T04:18:37;3.10;;;2.20;;
6809;SDS011;3443;48.812;9.112;2023-07-02T04:21:03;3.90;;;2.33;;
6809;SDS011;3443;48.812;9.112;2023-07-02T04:23:29;4.93;;;2.90;;
6809;SDS011;3443;48.812;9.112;2023-07-02T04:25:55;2.65;;;2.45;;
6809;SDS011;3443;48.812;9.112;2023-07-02T04:28:21;3.35;;;2.45;;
6809;SDS011;3443;48.812;9.112;2023-07-02T04:30:47;3.33;;;2.67;;
6809;SDS011;3443;48.812;9.112;2023-07-02T04:33:15;2.38;;;2.20;;
6809;SDS011;3443;48.812;9.112;2023-07-02T04:35:41;4.32;;;2.10;;
6809;SDS011;3443;48.812;9.112;2023-07-02T04:38:08;3.72;;;2.72;;
6809;SDS011;3443;48.812;9.112;2023-07-02T04:40:34;4.63;;;2.85;;
6809;SDS011;3443;48.812;9.112;2023-07-02T04:43:00;3.42;;;2.72;;
6809;SDS011;3443;48.812;9.112;2023-07-02T04:45:27;4.50;;;2.35;;
6809;SDS011;3443;48.812;9.112;2023-07-02T04:47:57;2.28;;;2.10;;
6809;SDS011;3443;48.812;9.112;2023-07-02T04:50:25;4.68;;;2.58;;
6809;SDS011;3443;48.812;9.112;2023-07-02T04:52:51;5.10;;;2.65;;
6809;SDS011;3443;48.812;9.112;2023-07-02T04:55:17;5.15;;;2.55;;
6809;SDS011;3443;48.812;9.112;2023-07-02T04:57:44;2.45;;;2.28;;
6809;SDS011;3443;48.812;9.112;2023-07-02T05:00:10;3.00;;;2.55;;
6809;SDS011;3443;48.812;9.112;2023-07-02T05:02:37;4.05;;;1.88;;
6809;SDS011;3443;48.812;9.112;2023-07-02T05:05:03;3.17;;;2.17;;
6809;SDS011;3443;48.812;9.112;2023-07-02T05:07:29;3.85;;;2.00;;
6809;SDS011;3443;48.812;9.112;2023-07-02T05:09:55;2.17;;;2.00;;
6809;SDS011;3443;48.812;9.112;2023-07-02T05:12:22;3.58;;;2.03;;
6809;SDS011;3443;48.812;9.112;2023-07-02T05:14:49;3.88;;;1.83;;
6809;SDS011;3443;48.812;9.112;2023-07-02T05:17:15;2.45;;;2.10;;
6809;SDS011;3443;48.812;9.112;2023-07-02T05:19:41;3.40;;;1.92;;
6809;SDS011;3443;48.812;9.112;2023-07-02T05:22:08;3.13;;;1.98;;
6809;SDS011;3443;48.812;9.112;2023-07-02T05:24:34;2.50;;;1.75;;
6809;SDS011;3443;48.812;9.112;2023-07-02T05:27:00;2.70;;;1.77;;
6809;SDS011;3443;48.812;9.112;2023-07-02T05:29:26;2.00;;;1.90;;
6809;SDS011;3443;48.812;9.112;2023-07-02T05:31:52;4.75;;;2.38;;
6809;SDS011;3443;48.812;9.112;2023-07-02T05:34:17;3.42;;;2.50;;
6809;SDS011;3443;48.812;9.112;2023-07-02T05:36:43;3.78;;;2.63;;
6809;SDS011;3443;48.812;9.112;2023-07-02T05:39:09;3.97;;;2.60;;
6809;SDS011;3443;48.812;9.112;2023-07-02T05:41:35;3.55;;;2.53;;
6809;SDS011;3443;48.812;9.112;2023-07-02T05:44:01;3.83;;;2.53;;
6809;SDS011;3443;48.812;9.112;2023-07-02T05:46:27;3.92;;;2.92;;
6809;SDS011;3443;48.812;9.112;2023-07-02T05:48:53;5.50;;;3.10;;
6809;SDS011;3443;48.812;9.112;2023-07-02T05:51:22;5.38;;;3.30;;
6809;SDS011;3443;48.812;9.112;2023-07-02T05:53:49;4.65;;;3.20;;
6809;SDS011;3443;48.812;9.112;2023-07-02T05:56:15;4.80;;;2.92;;
6809;SDS011;3443;48.812;9.112;2023-07-02T05:58:41;6.10;;;3.25;;
6809;SDS011;3443;48.812;9.112;2023-07-02T06:01:07;3.95;;;2.95;;
6809;SDS011;3443;48.812;9.112;2023-07-02T06:03:33;4.00;;;2.97;;
6809;SDS011;3443;48.812;9.112;2023-07-02T06:05:59;5.07;;;3.00;;
6809;SDS011;3443;48.812;9.112;2023-07-02T06:08:25;3.25;;;2.83;;
6809;SDS011;3443;48.812;9.112;2023-07-02T06:10:52;6.65;;;3.85;;
6809;SDS011;3443;48.812;9.112;2023-07-02T06:13:18;11.93;;;3.88;;
6809;SDS011;3443;48.812;9.112;2023-07-02T06:15:44;8.65;;;4.40;;
6809;SDS011;3443;48.812;9.112;2023-07-02T06:18:11;8.00;;;4.40;;
6809;SDS011;3443;48.812;9.112;2023-07-02T06:20:37;8.13;;;4.35;;
6809;SDS011;3443;48.812;9.112;2023-07-02T06:23:03;7.85;;;4.70;;
6809;SDS011;3443;48.812;9.112;2023-07-02T06:25:29;11.13;;;5.63;;
6809;SDS011;3443;48.812;9.112;2023-07-02T06:27:55;8.65;;;5.40;;
6809;SDS011;3443;48.812;9.112;2023-07-02T06:30:24;9.65;;;5.38;;
6809;SDS011;3443;48.812;9.112;2023-07-02T06:32:50;8.77;;;5.40;;
6809;SDS011;3443;48.812;9.112;2023-07-02T06:35:16;10.90;;;5.70;;
6809;SDS011;3443;48.812;9.112;2023-07-02T06:37:42;12.48;;;5.72;;
6809;SDS011;3443;48.812;9.112;2023-07-02T06:40:09;9.38;;;5.43;;
6809;SDS011;3443;48.812;9.112;2023-07-02T06:42:35;11.50;;;5.72;;
6809;SDS011;3443;48.812;9.112;2023-07-02T06:45:01;8.40;;;5.22;;
6809;SDS011;3443;48.812;9.112;2023-07-02T06:47:27;8.20;;;5.53;;
6809;SDS011;3443;48.812;9.112;2023-07-02T06:49:53;10.07;;;5.13;;
6809;SDS011;3443;48.812;9.112;2023-07-02T06:52:19;8.32;;;5.88;;
6809;SDS011;3443;48.812;9.112;2023-07-02T06:54:45;7.75;;;5.30;;
6809;SDS011;3443;48.812;9.112;2023-07-02T06:57:12;11.00;;;5.60;;
6809;SDS011;3443;48.812;9.112;2023-07-02T06:59:38;7.03;;;5.65;;
6809;SDS011;3443;48.812;9.112;2023-07-02T07:02:04;11.18;;;5.97;;
6809;SDS011;3443;48.812;9.112;2023-07-02T07:04:30;12.25;;;6.45;;
6809;SDS011;3443;48.812;9.112;2023-07-02T07:06:56;14.20;;;7.15;;
6809;SDS011;3443;48.812;9.112;2023-07-02T07:09:22;12.85;;;7.53;;
6809;SDS011;3443;48.812;9.112;2023-07-02T07:11:48;10.23;;;6.88;;
6809;SDS011;3443;48.812;9.112;2023-07-02T07:14:14;12.50;;;7.50;;
6809;SDS011;3443;48.812;9.112;2023-07-02T07:16:40;12.98;;;7.47;;
6809;SDS011;3443;48.812;9.112;2023-07-02T07:19:06;14.70;;;7.82;;
6809;SDS011;3443;48.812;9.112;2023-07-02T07:21:35;10.85;;;7.70;;
6809;SDS011;3443;48.812;9.112;2023-07-02T07:24:01;12.82;;;8.48;;
6809;SDS011;3443;48.812;9.112;2023-07-02T07:26:27;11.45;;;7.85;;
6809;SDS011;3443;48.812;9.112;2023-07-02T07:28:53;16.40;;;9.73;;
6809;SDS011;3443;48.812;9.112;2023-07-02T07:31:21;14.15;;;8.85;;
6809;SDS011;3443;48.812;9.112;2023-07-02T07:33:47;14.57;;;8.60;;
6809;SDS011;3443;48.812;9.112;2023-07-02T07:36:13;18.13;;;9.45;;
6809;SDS011;3443;48.812;9.112;2023-07-02T07:38:39;14.02;;;8.80;;
6809;SDS011;3443;48.812;9.112;2023-07-02T07:41:05;17.88;;;10.18;;
6809;SDS011;3443;48.812;9.112;2023-07-02T07:43:31;19.30;;;9.98;;
6809;SDS011;3443;48.812;9.112;2023-07-02T07:45:57;15.02;;;9.82;;
6809;SDS011;3443;48.812;9.112;2023-07-02T07:48:24;15.35;;;9.88;;
6809;SDS011;3443;48.812;9.112;2023-07-02T07:50:50;15.25;;;9.80;;
6809;SDS011;3443;48.812;9.112;2023-07-02T07:53:16;16.52;;;9.63;;
6809;SDS011;3443;48.812;9.112;2023-07-02T07:55:42;15.70;;;9.70;;
6809;SDS011;3443;48.812;9.112;2023-07-02T07:58:08;17.08;;;10.55;;
6809;SDS011;3443;48.812;9.112;2023-07-02T08:00:34;14.55;;;10.07;;
6809;SDS011;3443;48.812;9.112;2023-07-02T08:03:00;16.40;;;10.02;;
6809;SDS011;3443;48.812;9.112;2023-07-02T08:05:27;18.58;;;10.63;;
6809;SDS011;3443;48.812;9.112;2023-07-02T08:07:54;16.27;;;10.80;;
6809;SDS011;3443;48.812;9.112;2023-07-02T08:10:20;17.40;;;10.68;;
6809;SDS011;3443;48.812;9.112;2023-07-02T08:12:46;15.23;;;10.90;;
6809;SDS011;3443;48.812;9.112;2023-07-02T08:15:13;16.02;;;10.93;;
6809;SDS011;3443;48.812;9.112;2023-07-02T08:17:39;15.98;;;10.63;;
6809;SDS011;3443;48.812;9.112;2023-07-02T08:20:05;14.13;;;9.75;;
6809;SDS011;3443;48.812;9.112;2023-07-02T08:22:34;18.27;;;10.20;;
6809;SDS011;3443;48.812;9.112;2023-07-02T08:25:01;14.88;;;10.18;;
6809;SDS011;3443;48.812;9.112;2023-07-02T08:27:27;16.98;;;10.63;;
6809;SDS011;3443;48.812;9.112;2023-07-02T08:29:53;16.45;;;10.55;;
6809;SDS011;3443;48.812;9.112;2023-07-02T08:32:19;15.65;;;10.55;;
6809;SDS011;3443;48.812;9.112;2023-07-02T08:34:45;19.05;;;10.25;;
6809;SDS011;3443;48.812;9.112;2023-07-02T08:37:11;14.00;;;10.23;;
6809;SDS011;3443;48.812;9.112;2023-07-02T08:39:37;15.05;;;10.38;;
6809;SDS011;3443;48.812;9.112;2023-07-02T08:42:04;14.40;;;9.70;;
6809;SDS011;3443;48.812;9.112;2023-07-02T08:44:31;16.27;;;10.57;;
6809;SDS011;3443;48.812;9.112;2023-07-02T08:46:57;16.02;;;10.18;;
6809;SDS011;3443;48.812;9.112;2023-07-02T08:49:24;17.33;;;10.30;;
6809;SDS011;3443;48.812;9.112;2023-07-02T08:51:50;17.17;;;10.00;;
6809;SDS011;3443;48.812;9.112;2023-07-02T08:54:19;18.60;;;11.02;;
6809;SDS011;3443;48.812;9.112;2023-07-02T08:56:45;14.80;;;10.18;;
6809;SDS011;3443;48.812;9.112;2023-07-02T08:59:12;12.95;;;9.80;;
6809;SDS011;3443;48.812;9.112;2023-07-02T09:01:47;14.50;;;9.77;;
6809;SDS011;3443;48.812;9.112;2023-07-02T09:04:17;16.92;;;10.50;;
6809;SDS011;3443;48.812;9.112;2023-07-02T09:06:44;16.27;;;10.20;;
6809;SDS011;3443;48.812;9.112;2023-07-02T09:09:10;13.18;;;9.68;;
6809;SDS011;3443;48.812;9.112;2023-07-02T09:11:46;15.82;;;10.27;;
6809;SDS011;3443;48.812;9.112;2023-07-02T09:14:22;14.30;;;9.73;;
6809;SDS011;3443;48.812;9.112;2023-07-02T09:16:49;18.63;;;10.88;;
6809;SDS011;3443;48.812;9.112;2023-07-02T09:19:15;15.02;;;10.57;;
6809;SDS011;3443;48.812;9.112;2023-07-02T09:21:46;14.35;;;10.18;;
6809;SDS011;3443;48.812;9.112;2023-07-02T09:24:16;13.95;;;10.30;;
6809;SDS011;3443;48.812;9.112;2023-07-02T09:26:47;17.02;;;10.48;;
6809;SDS011;3443;48.812;9.112;2023-07-02T09:31:50;13.45;;;10.43;;
6809;SDS011;3443;48.812;9.112;2023-07-02T09:34:16;16.17;;;10.90;;
6809;SDS011;3443;48.812;9.112;2023-07-02T09:36:42;13.63;;;9.80;;
6809;SDS011;3443;48.812;9.112;2023-07-02T09:39:12;17.05;;;11.43;;
6809;SDS011;3443;48.812;9.112;2023-07-02T09:41:42;14.82;;;11.20;;
6809;SDS011;3443;48.812;9.112;2023-07-02T09:44:11;16.77;;;11.00;;
6809;SDS011;3443;48.812;9.112;2023-07-02T09:46:40;18.50;;;10.38;;
6809;SDS011;3443;48.812;9.112;2023-07-02T09:49:08;17.25;;;10.52;;
6809;SDS011;3443;48.812;9.112;2023-07-02T09:51:37;14.98;;;10.63;;
6809;SDS011;3443;48.812;9.112;2023-07-02T09:54:03;14.85;;;10.20;;
6809;SDS011;3443;48.812;9.112;2023-07-02T09:56:29;15.05;;;11.38;;
6809;SDS011;3443;48.812;9.112;2023-07-02T09:58:55;15.10;;;10.45;;
6809;SDS011;3443;48.812;9.112;2023-07-02T10:01:22;14.55;;;10.82;;
6809;SDS011;3443;48.812;9.112;2023-07-02T10:03:48;17.55;;;11.05;;
6809;SDS011;3443;48.812;9.112;2023-07-02T10:06:14;14.70;;;10.63;;
6809;SDS011;3443;48.812;9.112;2023-07-02T10:08:40;14.65;;;10.30;;
6809;SDS011;3443;48.812;9.112;2023-07-02T10:11:07;14.85;;;11.02;;
6809;SDS011;3443;48.812;9.112;2023-07-02T10:13:34;14.43;;;10.68;;
6809;SDS011;3443;48.812;9.112;2023-07-02T10:16:00;18.83;;;10.70;;
6809;SDS011;3443;48.812;9.112;2023-07-02T10:18:26;14.60;;;10.85;;
6809;SDS011;3443;48.812;9.112;2023-07-02T10:20:52;14.10;;;10.25;;
6809;SDS011;3443;48.812;9.112;2023-07-02T10:23:18;16.08;;;10.77;;
6809;SDS011;3443;48.812;9.112;2023-07-02T10:25:44;15.88;;;10.40;;
6809;SDS011;3443;48.812;9.112;2023-07-02T10:28:14;16.55;;;9.98;;
6809;SDS011;3443;48.812;9.112;2023-07-02T10:30:41;15.68;;;11.10;;
6809;SDS011;3443;48.812;9.112;2023-07-02T10:33:11;15.55;;;10.50;;
6809;SDS011;3443;48.812;9.112;2023-07-02T10:35:40;13.18;;;10.38;;
6809;SDS011;3443;48.812;9.112;2023-07-02T10:38:07;12.82;;;10.43;;
6809;SDS011;3443;48.812;9.112;2023-07-02T10:40:33;14.93;;;10.05;;
6809;SDS011;3443;48.812;9.112;2023-07-02T10:42:59;15.57;;;11.50;;
6809;SDS011;3443;48.812;9.112;2023-07-02T10:45:32;14.45;;;11.02;;
6809;SDS011;3443;48.812;9.112;2023-07-02T10:47:58;15.18;;;11.40;;
6809;SDS011;3443;48.812;9.112;2023-07-02T10:50:24;15.63;;;10.80;;
6809;SDS011;3443;48.812;9.112;2023-07-02T10:52:50;16.75;;;10.95;;
6809;SDS011;3443;48.812;9.112;2023-07-02T10:55:20;13.02;;;10.48;;
6809;SDS011;3443;48.812;9.112;2023-07-02T10:57:47;15.60;;;11.15;;
6809;SDS011;3443;48.812;9.112;2023-07-02T11:00:13;14.02;;;10.70;;
6809;SDS011;3443;48.812;9.112;2023-07-02T11:02:40;16.20;;;10.68;;
6809;SDS011;3443;48.812;9.112;2023-07-02T11:05:06;17.10;;;10.93;;
6809;SDS011;3443;48.812;9.112;2023-07-02T11:07:43;15.35;;;10.73;;
6809;SDS011;3443;48.812;9.112;2023-07-02T11:10:10;13.15;;;10.13;;
6809;SDS011;3443;48.812;9.112;2023-07-02T11:12:36;13.85;;;10.68;;
6809;SDS011;3443;48.812;9.112;2023-07-02T11:15:15;16.95;;;10.60;;
6809;SDS011;3443;48.812;9.112;2023-07-02T11:17:44;15.18;;;11.18;;
6809;SDS011;3443;48.812;9.112;2023-07-02T11:20:11;16.25;;;11.50;;
6809;SDS011;3443;48.812;9.112;2023-07-02T11:22:37;13.80;;;10.57;;
6809;SDS011;3443;48.812;9.112;2023-07-02T11:25:14;13.40;;;10.68;;
6809;SDS011;3443;48.812;9.112;2023-07-02T11:27:41;15.77;;;10.70;;
6809;SDS011;3443;48.812;9.112;2023-07-02T11:30:07;13.13;;;9.98;;
6809;SDS011;3443;48.812;9.112;2023-07-02T11:32:52;13.05;;;10.15;;
6809;SDS011;3443;48.812;9.112;2023-07-02T11:35:18;13.07;;;9.40;;
6809;SDS011;3443;48.812;9.112;2023-07-02T11:37:44;13.82;;;10.27;;
6809;SDS011;3443;48.812;9.112;2023-07-02T11:40:11;13.85;;;9.77;;
6809;SDS011;3443;48.812;9.112;2023-07-02T11:42:40;13.10;;;10.45;;
6809;SDS011;3443;48.812;9.112;2023-07-02T11:45:07;16.45;;;10.23;;
6809;SDS011;3443;48.812;9.112;2023-07-02T11:47:33;16.52;;;11.15;;
6809;SDS011;3443;48.812;9.112;2023-07-02T11:49:59;14.70;;;11.80;;
6809;SDS011;3443;48.812;9.112;2023-07-02T11:52:25;14.48;;;10.77;;
6809;SDS011;3443;48.812;9.112;2023-07-02T11:54:51;14.60;;;10.95;;
6809;SDS011;3443;48.812;9.112;2023-07-02T11:57:17;14.98;;;11.00;;
6809;SDS011;3443;48.812;9.112;2023-07-02T11:59:43;15.40;;;11.48;;
6809;SDS011;3443;48.812;9.112;2023-07-02T12:02:09;14.45;;;11.20;;
6809;SDS011;3443;48.812;9.112;2023-07-02T12:04:35;16.30;;;11.25;;
6809;SDS011;3443;48.812;9.112;2023-07-02T12:07:01;16.35;;;10.80;;
6809;SDS011;3443;48.812;9.112;2023-07-02T12:09:28;15.00;;;11.85;;
6809;SDS011;3443;48.812;9.112;2023-07-02T12:11:54;15.77;;;11.57;;
6809;SDS011;3443;48.812;9.112;2023-07-02T12:14:20;14.80;;;10.18;;
6809;SDS011;3443;48.812;9.112;2023-07-02T12:16:46;15.52;;;11.40;;
6809;SDS011;3443;48.812;9.112;2023-07-02T12:19:12;14.35;;;11.13;;
6809;SDS011;3443;48.812;9.112;2023-07-02T12:21:38;14.55;;;11.13;;
6809;SDS011;3443;48.812;9.112;2023-07-02T12:24:04;14.27;;;11.15;;
6809;SDS011;3443;48.812;9.112;2023-07-02T12:26:34;16.05;;;10.95;;
6809;SDS011;3443;48.812;9.112;2023-07-02T12:29:00;17.27;;;11.45;;
6809;SDS011;3443;48.812;9.112;2023-07-02T12:31:26;17.10;;;11.73;;
6809;SDS011;3443;48.812;9.112;2023-07-02T12:33:52;14.48;;;10.80;;
6809;SDS011;3443;48.812;9.112;2023-07-02T12:36:18;16.55;;;11.63;;
6809;SDS011;3443;48.812;9.112;2023-07-02T12:38:44;15.52;;;11.63;;
6809;SDS011;3443;48.812;9.112;2023-07-02T12:41:10;15.40;;;11.65;;
6809;SDS011;3443;48.812;9.112;2023-07-02T12:43:36;14.80;;;11.75;;
6809;SDS011;3443;48.812;9.112;2023-07-02T12:46:02;15.77;;;11.27;;
6809;SDS011;3443;48.812;9.112;2023-07-02T12:48:28;14.82;;;11.80;;
6809;SDS011;3443;48.812;9.112;2023-07-02T12:50:54;14.38;;;10.27;;
6809;SDS011;3443;48.812;9.112;2023-07-02T12:53:20;17.02;;;11.30;;
6809;SDS011;3443;48.812;9.112;2023-07-02T12:55:46;17.83;;;10.75;;
6809;SDS011;3443;48.812;9.112;2023-07-02T12:58:12;18.05;;;11.55;;
6809;SDS011;3443;48.812;9.112;2023-07-02T13:00:38;16.30;;;11.43;;
6809;SDS011;3443;48.812;9.112;2023-07-02T13:03:04;14.77;;;11.43;;
6809;SDS011;3443;48.812;9.112;2023-07-02T13:05:32;17.30;;;11.93;;
6809;SDS011;3443;48.812;9.112;2023-07-02T13:07:58;15.95;;;11.88;;
6809;SDS011;3443;48.812;9.112;2023-07-02T13:10:24;15.60;;;11.52;;
6809;SDS011;3443;48.812;9.112;2023-07-02T13:12:50;15.80;;;11.52;;
6809;SDS011;3443;48.812;9.112;2023-07-02T13:15:16;16.48;;;11.65;;
6809;SDS011;3443;48.812;9.112;2023-07-02T13:17:42;14.88;;;11.02;;
6809;SDS011;3443;48.812;9.112;2023-07-02T13:20:09;15.63;;;11.55;;
6809;SDS011;3443;48.812;9.112;2023-07-02T13:22:35;16.75;;;11.60;;
6809;SDS011;3443;48.812;9.112;2023-07-02T13:25:02;16.27;;;11.40;;
6809;SDS011;3443;48.812;9.112;2023-07-02T13:27:28;13.98;;;10.70;;
6809;SDS011;3443;48.812;9.112;2023-07-02T13:29:54;15.98;;;10.95;;
6809;SDS011;3443;48.812;9.112;2023-07-02T13:32:20;14.55;;;11.93;;
6809;SDS011;3443;48.812;9.112;2023-07-02T13:34:46;15.85;;;11.48;;
6809;SDS011;3443;48.812;9.112;2023-07-02T13:37:12;16.30;;;11.15;;
6809;SDS011;3443;48.812;9.112;2023-07-02T13:39:39;14.10;;;10.88;;
6809;SDS011;3443;48.812;9.112;2023-07-02T13:42:05;14.52;;;11.07;;
6809;SDS011;3443;48.812;9.112;2023-07-02T13:44:31;17.65;;;11.63;;
6809;SDS011;3443;48.812;9.112;2023-07-02T13:46:57;14.35;;;10.70;;
6809;SDS011;3443;48.812;9.112;2023-07-02T13:49:23;14.40;;;11.45;;
6809;SDS011;3443;48.812;9.112;2023-07-02T13:51:49;17.20;;;11.75;;
6809;SDS011;3443;48.812;9.112;2023-07-02T13:54:15;13.82;;;10.90;;
6809;SDS011;3443;48.812;9.112;2023-07-02T13:56:43;14.73;;;11.55;;
6809;SDS011;3443;48.812;9.112;2023-07-02T13:59:09;17.17;;;11.63;;
6809;SDS011;3443;48.812;9.112;2023-07-02T14:01:35;14.98;;;11.45;;
6809;SDS011;3443;48.812;9.112;2023-07-02T14:04:01;14.05;;;10.60;;
6809;SDS011;3443;48.812;9.112;2023-07-02T14:06:28;15.95;;;11.10;;
6809;SDS011;3443;48.812;9.112;2023-07-02T14:08:54;14.32;;;11.13;;
6809;SDS011;3443;48.812;9.112;2023-07-02T14:11:20;13.98;;;11.38;;
6809;SDS011;3443;48.812;9.112;2023-07-02T14:13:46;15.02;;;11.30;;
6809;SDS011;3443;48.812;9.112;2023-07-02T14:16:12;12.93;;;10.93;;
6809;SDS011;3443;48.812;9.112;2023-07-02T14:18:38;14.93;;;11.43;;
6809;SDS011;3443;48.812;9.112;2023-07-02T14:21:04;16.15;;;11.00;;
6809;SDS011;3443;48.812;9.112;2023-07-02T14:23:31;15.30;;;10.98;;
6809;SDS011;3443;48.812;9.112;2023-07-02T14:25:57;13.85;;;11.02;;
6809;SDS011;3443;48.812;9.112;2023-07-02T14:28:23;12.50;;;10.95;;
6809;SDS011;3443;48.812;9.112;2023-07-02T14:31:00;14.55;;;10.73;;
6809;SDS011;3443;48.812;9.112;2023-07-02T14:33:26;13.88;;;10.95;;
6809;SDS011;3443;48.812;9.112;2023-07-02T14:35:53;16.00;;;10.85;;
6809;SDS011;3443;48.812;9.112;2023-07-02T14:38:19;14.38;;;10.80;;
6809;SDS011;3443;48.812;9.112;2023-07-02T14:40:45;15.68;;;11.35;;
6809;SDS011;3443;48.812;9.112;2023-07-02T14:43:12;14.90;;;10.73;;
6809;SDS011;3443;48.812;9.112;2023-07-02T14:45:46;13.82;;;10.05;;
6809;SDS011;3443;48.812;9.112;2023-07-02T14:48:13;15.68;;;10.63;;
6809;SDS011;3443;48.812;9.112;2023-07-02T14:50:47;15.88;;;11.40;;
6809;SDS011;3443;48.812;9.112;2023-07-02T14:53:14;14.43;;;11.05;;
6809;SDS011;3443;48.812;9.112;2023-07-02T14:55:40;15.30;;;10.73;;
6809;SDS011;3443;48.812;9.112;2023-07-02T14:58:06;14.10;;;11.20;;
6809;SDS011;3443;48.812;9.112;2023-07-02T15:00:32;16.08;;;10.95;;